sensor_id;sensor_type;location;lat;lon;timestamp;P1;durP1;ratioP1;P2;durP2;ratioP2
5519;SDS011;2782;52.362;10.012;2022-08-18T00:01:08;9.33;;;6.80;;
5519;SDS011;2782;52.362;10.012;2022-08-18T00:07:51;6.60;;;6.00;;
5519;SDS011;2782;52.362;10.012;2022-08-18T00:14:34;8.93;;;6.53;;
5519;SDS011;2782;52.362;10.012;2022-08-18T00:21:16;9.23;;;7.23;;
5519;SDS011;2782;52.362;10.012;2022-08-18T00:27:57;8.77;;;7.97;;
5519;SDS011;2782;52.362;10.012;2022-08-18T00:34:40;10.53;;;7.93;;
5519;SDS011;2782;52.362;10.012;2022-08-18T00:41:22;11.17;;;7.70;;
5519;SDS011;2782;52.362;10.012;2022-08-18T00:48:05;9.10;;;7.70;;
5519;SDS011;2782;52.362;10.012;2022-08-18T00:54:50;7.83;;;6.50;;
5519;SDS011;2782;52.362;10.012;2022-08-18T01:01:34;7.20;;;6.50;;
5519;SDS011;2782;52.362;10.012;2022-08-18T01:08:17;8.10;;;5.70;;
5519;SDS011;2782;52.362;10.012;2022-08-18T01:15:00;6.50;;;5.40;;
5519;SDS011;2782;52.362;10.012;2022-08-18T01:21:43;5.37;;;4.87;;
5519;SDS011;2782;52.362;10.012;2022-08-18T01:28:35;7.30;;;5.33;;
5519;SDS011;2782;52.362;10.012;2022-08-18T01:35:18;8.37;;;6.40;;
5519;SDS011;2782;52.362;10.012;2022-08-18T01:42:04;8.20;;;5.60;;
5519;SDS011;2782;52.362;10.012;2022-08-18T01:48:47;7.80;;;5.60;;
5519;SDS011;2782;52.362;10.012;2022-08-18T01:55:29;6.23;;;5.63;;
5519;SDS011;2782;52.362;10.012;2022-08-18T02:02:13;6.23;;;5.63;;
5519;SDS011;2782;52.362;10.012;2022-08-18T02:08:59;6.67;;;5.97;;
5519;SDS011;2782;52.362;10.012;2022-08-18T02:15:41;6.10;;;5.50;;
5519;SDS011;2782;52.362;10.012;2022-08-18T02:22:22;14.90;;;6.50;;
5519;SDS011;2782;52.362;10.012;2022-08-18T02:29:05;6.33;;;5.73;;
5519;SDS011;2782;52.362;10.012;2022-08-18T02:35:50;5.27;;;4.77;;
5519;SDS011;2782;52.362;10.012;2022-08-18T02:42:34;7.27;;;5.33;;
5519;SDS011;2782;52.362;10.012;2022-08-18T02:49:18;5.77;;;5.20;;
5519;SDS011;2782;52.362;10.012;2022-08-18T02:56:04;4.87;;;4.47;;
5519;SDS011;2782;52.362;10.012;2022-08-18T03:03:01;7.43;;;5.33;;
5519;SDS011;2782;52.362;10.012;2022-08-18T03:09:44;5.97;;;5.47;;
5519;SDS011;2782;52.362;10.012;2022-08-18T03:16:26;7.20;;;5.60;;
5519;SDS011;2782;52.362;10.012;2022-08-18T03:23:11;7.73;;;5.17;;
5519;SDS011;2782;52.362;10.012;2022-08-18T03:29:54;8.03;;;4.97;;
5519;SDS011;2782;52.362;10.012;2022-08-18T03:36:36;7.50;;;4.20;;
5519;SDS011;2782;52.362;10.012;2022-08-18T03:43:18;6.10;;;5.10;;
5519;SDS011;2782;52.362;10.012;2022-08-18T03:50:01;6.87;;;4.30;;
5519;SDS011;2782;52.362;10.012;2022-08-18T03:56:43;10.90;;;6.20;;
5519;SDS011;2782;52.362;10.012;2022-08-18T04:03:26;8.00;;;7.30;;
5519;SDS011;2782;52.362;10.012;2022-08-18T04:10:09;9.83;;;6.20;;
5519;SDS011;2782;52.362;10.012;2022-08-18T04:16:51;12.40;;;11.10;;
5519;SDS011;2782;52.362;10.012;2022-08-18T04:23:33;17.80;;;14.80;;
5519;SDS011;2782;52.362;10.012;2022-08-18T04:30:16;26.93;;;17.50;;
5519;SDS011;2782;52.362;10.012;2022-08-18T04:36:58;20.90;;;17.50;;
5519;SDS011;2782;52.362;10.012;2022-08-18T04:43:40;24.47;;;16.90;;
5519;SDS011;2782;52.362;10.012;2022-08-18T04:50:23;27.60;;;18.97;;
5519;SDS011;2782;52.362;10.012;2022-08-18T04:57:05;30.10;;;20.03;;
5519;SDS011;2782;52.362;10.012;2022-08-18T05:03:52;31.13;;;24.80;;
5519;SDS011;2782;52.362;10.012;2022-08-18T05:10:36;29.10;;;22.20;;
5519;SDS011;2782;52.362;10.012;2022-08-18T05:17:19;34.50;;;25.53;;
5519;SDS011;2782;52.362;10.012;2022-08-18T05:24:01;31.10;;;24.27;;
5519;SDS011;2782;52.362;10.012;2022-08-18T05:30:46;33.73;;;25.57;;
5519;SDS011;2782;52.362;10.012;2022-08-18T05:37:29;36.77;;;18.70;;
5519;SDS011;2782;52.362;10.012;2022-08-18T05:44:19;39.97;;;17.80;;
5519;SDS011;2782;52.362;10.012;2022-08-18T05:51:09;31.83;;;19.77;;
5519;SDS011;2782;52.362;10.012;2022-08-18T05:57:57;24.87;;;17.73;;
5519;SDS011;2782;52.362;10.012;2022-08-18T06:04:44;22.47;;;17.23;;
5519;SDS011;2782;52.362;10.012;2022-08-18T06:11:30;22.50;;;17.77;;
5519;SDS011;2782;52.362;10.012;2022-08-18T06:18:17;22.70;;;17.00;;
5519;SDS011;2782;52.362;10.012;2022-08-18T06:25:09;20.60;;;15.67;;
5519;SDS011;2782;52.362;10.012;2022-08-18T06:31:58;19.07;;;15.30;;
5519;SDS011;2782;52.362;10.012;2022-08-18T06:38:50;21.80;;;17.47;;
5519;SDS011;2782;52.362;10.012;2022-08-18T06:45:36;22.70;;;17.87;;
5519;SDS011;2782;52.362;10.012;2022-08-18T06:52:27;21.13;;;16.60;;
5519;SDS011;2782;52.362;10.012;2022-08-18T06:59:13;26.07;;;17.30;;
5519;SDS011;2782;52.362;10.012;2022-08-18T07:05:59;20.90;;;14.80;;
5519;SDS011;2782;52.362;10.012;2022-08-18T07:12:43;19.77;;;16.20;;
5519;SDS011;2782;52.362;10.012;2022-08-18T07:19:27;18.07;;;14.37;;
5519;SDS011;2782;52.362;10.012;2022-08-18T07:26:11;25.33;;;20.50;;
5519;SDS011;2782;52.362;10.012;2022-08-18T07:32:56;33.57;;;23.17;;
5519;SDS011;2782;52.362;10.012;2022-08-18T07:39:44;42.70;;;28.57;;
5519;SDS011;2782;52.362;10.012;2022-08-18T07:46:32;39.60;;;28.40;;
5519;SDS011;2782;52.362;10.012;2022-08-18T07:53:23;39.97;;;30.20;;
5519;SDS011;2782;52.362;10.012;2022-08-18T08:00:17;50.67;;;33.47;;
5519;SDS011;2782;52.362;10.012;2022-08-18T08:07:03;43.73;;;31.80;;
5519;SDS011;2782;52.362;10.012;2022-08-18T08:13:55;50.63;;;35.00;;
5519;SDS011;2782;52.362;10.012;2022-08-18T08:20:46;45.73;;;34.03;;
5519;SDS011;2782;52.362;10.012;2022-08-18T08:27:37;42.30;;;29.30;;
5519;SDS011;2782;52.362;10.012;2022-08-18T08:34:29;36.77;;;27.07;;
5519;SDS011;2782;52.362;10.012;2022-08-18T08:41:23;36.27;;;27.90;;
5519;SDS011;2782;52.362;10.012;2022-08-18T08:48:13;40.50;;;30.00;;
5519;SDS011;2782;52.362;10.012;2022-08-18T08:55:03;37.60;;;27.30;;
5519;SDS011;2782;52.362;10.012;2022-08-18T09:01:50;41.00;;;29.27;;
5519;SDS011;2782;52.362;10.012;2022-08-18T09:09:00;43.73;;;28.93;;
5519;SDS011;2782;52.362;10.012;2022-08-18T09:16:08;38.57;;;27.70;;
5519;SDS011;2782;52.362;10.012;2022-08-18T09:23:02;47.93;;;32.00;;
5519;SDS011;2782;52.362;10.012;2022-08-18T09:29:49;39.90;;;29.63;;
5519;SDS011;2782;52.362;10.012;2022-08-18T09:36:36;37.23;;;27.13;;
5519;SDS011;2782;52.362;10.012;2022-08-18T09:43:28;34.17;;;25.73;;
5519;SDS011;2782;52.362;10.012;2022-08-18T09:57:35;30.70;;;22.70;;
5519;SDS011;2782;52.362;10.012;2022-08-18T10:04:25;26.80;;;21.80;;
5519;SDS011;2782;52.362;10.012;2022-08-18T10:11:16;26.67;;;21.40;;
5519;SDS011;2782;52.362;10.012;2022-08-18T10:18:16;25.83;;;21.30;;
5519;SDS011;2782;52.362;10.012;2022-08-18T10:25:34;25.40;;;20.23;;
5519;SDS011;2782;52.362;10.012;2022-08-18T10:32:23;21.50;;;19.20;;
5519;SDS011;2782;52.362;10.012;2022-08-18T10:39:22;22.87;;;17.97;;
5519;SDS011;2782;52.362;10.012;2022-08-18T10:46:13;18.07;;;16.17;;
5519;SDS011;2782;52.362;10.012;2022-08-18T10:53:00;21.43;;;15.70;;
5519;SDS011;2782;52.362;10.012;2022-08-18T10:59:51;15.33;;;13.13;;
5519;SDS011;2782;52.362;10.012;2022-08-18T11:06:40;18.57;;;15.13;;
5519;SDS011;2782;52.362;10.012;2022-08-18T11:13:25;20.77;;;14.27;;
5519;SDS011;2782;52.362;10.012;2022-08-18T11:20:13;15.63;;;13.63;;
5519;SDS011;2782;52.362;10.012;2022-08-18T11:26:58;16.77;;;13.50;;
5519;SDS011;2782;52.362;10.012;2022-08-18T11:33:41;15.37;;;13.43;;
5519;SDS011;2782;52.362;10.012;2022-08-18T11:40:32;15.50;;;12.80;;
5519;SDS011;2782;52.362;10.012;2022-08-18T11:47:17;13.30;;;12.00;;
5519;SDS011;2782;52.362;10.012;2022-08-18T11:54:02;19.37;;;11.93;;
5519;SDS011;2782;52.362;10.012;2022-08-18T12:01:01;14.17;;;11.50;;
5519;SDS011;2782;52.362;10.012;2022-08-18T12:07:47;12.60;;;10.47;;
5519;SDS011;2782;52.362;10.012;2022-08-18T12:14:31;13.70;;;10.30;;
5519;SDS011;2782;52.362;10.012;2022-08-18T12:21:16;11.70;;;10.00;;
5519;SDS011;2782;52.362;10.012;2022-08-18T12:27:58;11.47;;;9.67;;
5519;SDS011;2782;52.362;10.012;2022-08-18T12:34:40;14.27;;;10.20;;
5519;SDS011;2782;52.362;10.012;2022-08-18T12:41:23;8.80;;;7.90;;
5519;SDS011;2782;52.362;10.012;2022-08-18T12:48:05;13.80;;;8.53;;
5519;SDS011;2782;52.362;10.012;2022-08-18T12:54:50;8.87;;;8.00;;
5519;SDS011;2782;52.362;10.012;2022-08-18T13:01:34;10.33;;;7.73;;
5519;SDS011;2782;52.362;10.012;2022-08-18T13:08:17;8.90;;;7.50;;
5519;SDS011;2782;52.362;10.012;2022-08-18T13:15:01;9.83;;;8.60;;
5519;SDS011;2782;52.362;10.012;2022-08-18T13:21:46;9.10;;;7.77;;
5519;SDS011;2782;52.362;10.012;2022-08-18T13:28:28;9.33;;;7.60;;
5519;SDS011;2782;52.362;10.012;2022-08-18T13:35:11;8.77;;;7.03;;
5519;SDS011;2782;52.362;10.012;2022-08-18T13:41:54;7.57;;;6.87;;
5519;SDS011;2782;52.362;10.012;2022-08-18T13:48:36;7.90;;;7.10;;
5519;SDS011;2782;52.362;10.012;2022-08-18T13:55:18;7.87;;;7.17;;
5519;SDS011;2782;52.362;10.012;2022-08-18T14:02:02;7.50;;;6.80;;
5519;SDS011;2782;52.362;10.012;2022-08-18T14:08:47;8.13;;;7.30;;
5519;SDS011;2782;52.362;10.012;2022-08-18T14:15:28;7.50;;;6.70;;
5519;SDS011;2782;52.362;10.012;2022-08-18T14:22:12;7.40;;;6.17;;
5519;SDS011;2782;52.362;10.012;2022-08-18T14:29:11;7.67;;;6.80;;
5519;SDS011;2782;52.362;10.012;2022-08-18T14:35:53;8.20;;;6.37;;
5519;SDS011;2782;52.362;10.012;2022-08-18T14:42:36;9.33;;;7.77;;
5519;SDS011;2782;52.362;10.012;2022-08-18T14:49:20;8.43;;;7.50;;
5519;SDS011;2782;52.362;10.012;2022-08-18T14:56:03;7.40;;;6.60;;
5519;SDS011;2782;52.362;10.012;2022-08-18T15:02:48;12.47;;;7.77;;
5519;SDS011;2782;52.362;10.012;2022-08-18T15:09:30;14.90;;;8.77;;
5519;SDS011;2782;52.362;10.012;2022-08-18T15:16:12;9.20;;;7.73;;
5519;SDS011;2782;52.362;10.012;2022-08-18T15:23:15;18.73;;;8.87;;
5519;SDS011;2782;52.362;10.012;2022-08-18T15:30:15;9.70;;;7.73;;
5519;SDS011;2782;52.362;10.012;2022-08-18T15:36:57;16.33;;;7.60;;
5519;SDS011;2782;52.362;10.012;2022-08-18T15:43:40;8.63;;;7.73;;
5519;SDS011;2782;52.362;10.012;2022-08-18T15:50:22;8.10;;;7.30;;
5519;SDS011;2782;52.362;10.012;2022-08-18T15:57:04;10.37;;;7.50;;
5519;SDS011;2782;52.362;10.012;2022-08-18T16:03:53;8.00;;;7.17;;
5519;SDS011;2782;52.362;10.012;2022-08-18T16:10:35;9.17;;;7.13;;
5519;SDS011;2782;52.362;10.012;2022-08-18T16:17:19;13.77;;;7.30;;
5519;SDS011;2782;52.362;10.012;2022-08-18T16:24:02;16.73;;;7.67;;
5519;SDS011;2782;52.362;10.012;2022-08-18T16:30:45;7.27;;;6.57;;
5519;SDS011;2782;52.362;10.012;2022-08-18T16:37:26;9.50;;;7.60;;
5519;SDS011;2782;52.362;10.012;2022-08-18T16:44:10;9.07;;;7.50;;
5519;SDS011;2782;52.362;10.012;2022-08-18T16:50:55;12.67;;;7.70;;
5519;SDS011;2782;52.362;10.012;2022-08-18T16:57:37;12.23;;;8.77;;
5519;SDS011;2782;52.362;10.012;2022-08-18T17:04:38;18.37;;;8.63;;
5519;SDS011;2782;52.362;10.012;2022-08-18T17:11:20;11.63;;;8.73;;
5519;SDS011;2782;52.362;10.012;2022-08-18T17:18:02;13.87;;;9.17;;
5519;SDS011;2782;52.362;10.012;2022-08-18T17:24:45;12.87;;;9.10;;
5519;SDS011;2782;52.362;10.012;2022-08-18T17:31:27;15.97;;;10.33;;
5519;SDS011;2782;52.362;10.012;2022-08-18T17:38:10;18.20;;;11.17;;
5519;SDS011;2782;52.362;10.012;2022-08-18T17:44:58;12.17;;;10.87;;
5519;SDS011;2782;52.362;10.012;2022-08-18T17:51:44;12.67;;;10.67;;
5519;SDS011;2782;52.362;10.012;2022-08-18T17:58:28;12.13;;;10.77;;
5519;SDS011;2782;52.362;10.012;2022-08-18T18:05:19;12.10;;;10.80;;
5519;SDS011;2782;52.362;10.012;2022-08-18T18:12:03;12.40;;;11.07;;
5519;SDS011;2782;52.362;10.012;2022-08-18T18:19:04;13.03;;;11.40;;
5519;SDS011;2782;52.362;10.012;2022-08-18T18:25:48;21.97;;;11.20;;
5519;SDS011;2782;52.362;10.012;2022-08-18T18:32:31;12.83;;;10.67;;
5519;SDS011;2782;52.362;10.012;2022-08-18T18:39:18;10.33;;;9.43;;
5519;SDS011;2782;52.362;10.012;2022-08-18T18:46:14;15.00;;;10.43;;
5519;SDS011;2782;52.362;10.012;2022-08-18T18:53:10;13.23;;;10.63;;
5519;SDS011;2782;52.362;10.012;2022-08-18T19:00:04;13.63;;;11.13;;
5519;SDS011;2782;52.362;10.012;2022-08-18T19:06:56;13.00;;;9.83;;
5519;SDS011;2782;52.362;10.012;2022-08-18T19:13:42;12.93;;;9.30;;
5519;SDS011;2782;52.362;10.012;2022-08-18T19:20:29;16.53;;;9.40;;
5519;SDS011;2782;52.362;10.012;2022-08-18T19:27:22;11.93;;;8.90;;
5519;SDS011;2782;52.362;10.012;2022-08-18T19:34:10;9.60;;;8.70;;
5519;SDS011;2782;52.362;10.012;2022-08-18T19:40:56;11.60;;;8.77;;
5519;SDS011;2782;52.362;10.012;2022-08-18T19:47:47;15.83;;;10.40;;
5519;SDS011;2782;52.362;10.012;2022-08-18T19:54:39;17.80;;;10.07;;
5519;SDS011;2782;52.362;10.012;2022-08-18T20:01:32;11.53;;;10.30;;
5519;SDS011;2782;52.362;10.012;2022-08-18T20:08:33;17.73;;;9.17;;
5519;SDS011;2782;52.362;10.012;2022-08-18T20:15:34;15.63;;;8.00;;
5519;SDS011;2782;52.362;10.012;2022-08-18T20:22:38;15.37;;;8.07;;
5519;SDS011;2782;52.362;10.012;2022-08-18T20:36:26;10.63;;;7.40;;
5519;SDS011;2782;52.362;10.012;2022-08-18T20:43:21;10.73;;;7.53;;
5519;SDS011;2782;52.362;10.012;2022-08-18T20:50:27;11.47;;;6.40;;
5519;SDS011;2782;52.362;10.012;2022-08-18T20:57:31;8.20;;;6.30;;
5519;SDS011;2782;52.362;10.012;2022-08-18T21:04:16;5.87;;;5.33;;
5519;SDS011;2782;52.362;10.012;2022-08-18T21:11:19;7.00;;;5.93;;
5519;SDS011;2782;52.362;10.012;2022-08-18T21:18:04;7.60;;;5.00;;
5519;SDS011;2782;52.362;10.012;2022-08-18T21:24:48;9.13;;;5.90;;
5519;SDS011;2782;52.362;10.012;2022-08-18T21:31:32;6.97;;;5.70;;
5519;SDS011;2782;52.362;10.012;2022-08-18T21:38:23;9.73;;;5.93;;
5519;SDS011;2782;52.362;10.012;2022-08-18T21:45:12;6.93;;;4.93;;
5519;SDS011;2782;52.362;10.012;2022-08-18T21:51:57;10.13;;;6.03;;
5519;SDS011;2782;52.362;10.012;2022-08-18T21:58:40;6.90;;;6.00;;
5519;SDS011;2782;52.362;10.012;2022-08-18T22:05:25;7.77;;;5.13;;
5519;SDS011;2782;52.362;10.012;2022-08-18T22:12:24;8.73;;;5.77;;
5519;SDS011;2782;52.362;10.012;2022-08-18T22:19:26;8.47;;;5.30;;
5519;SDS011;2782;52.362;10.012;2022-08-18T22:26:08;5.73;;;5.20;;
5519;SDS011;2782;52.362;10.012;2022-08-18T22:32:53;11.87;;;5.60;;
5519;SDS011;2782;52.362;10.012;2022-08-18T22:39:36;8.87;;;5.53;;
5519;SDS011;2782;52.362;10.012;2022-08-18T22:46:19;9.07;;;5.60;;
5519;SDS011;2782;52.362;10.012;2022-08-18T22:53:04;8.37;;;5.63;;
5519;SDS011;2782;52.362;10.012;2022-08-18T22:59:46;8.60;;;5.73;;
5519;SDS011;2782;52.362;10.012;2022-08-18T23:06:27;9.73;;;5.93;;
5519;SDS011;2782;52.362;10.012;2022-08-18T23:13:10;8.37;;;5.33;;
5519;SDS011;2782;52.362;10.012;2022-08-18T23:19:52;9.43;;;5.73;;
5519;SDS011;2782;52.362;10.012;2022-08-18T23:26:34;7.00;;;4.63;;
5519;SDS011;2782;52.362;10.012;2022-08-18T23:33:17;8.10;;;5.13;;
5519;SDS011;2782;52.362;10.012;2022-08-18T23:40:01;6.63;;;5.53;;
5519;SDS011;2782;52.362;10.012;2022-08-18T23:46:43;6.10;;;4.80;;
5519;SDS011;2782;52.362;10.012;2022-08-18T23:53:26;7.40;;;5.20;;
